createdAt,value
2022-12-11T00:00:25.476Z,59.78
2022-12-11T00:02:51.991Z,50.35
2022-12-11T00:05:18.574Z,51.85
2022-12-11T00:07:45.005Z,47.80
2022-12-11T00:10:11.456Z,51.97
2022-12-11T00:12:37.856Z,48.95
2022-12-11T00:15:04.563Z,56.90
2022-12-11T00:17:30.984Z,60.20
2022-12-11T00:19:57.370Z,50.97
2022-12-11T00:22:23.825Z,54.65
2022-12-11T00:24:51.274Z,53.17
2022-12-11T00:27:17.685Z,41.88
2022-12-11T00:29:44.252Z,48.85
2022-12-11T00:32:10.677Z,50.63
2022-12-11T00:34:37.180Z,51.67
2022-12-11T00:37:03.749Z,54.58
2022-12-11T00:39:30.210Z,57.95
2022-12-11T00:41:56.712Z,55.75
2022-12-11T00:44:23.071Z,54.23
2022-12-11T00:46:49.642Z,52.40
2022-12-11T00:49:16.312Z,55.60
2022-12-11T00:51:42.706Z,49.65
2022-12-11T00:54:09.126Z,47.63
2022-12-11T00:56:35.523Z,49.10
2022-12-11T00:59:01.947Z,54.08
2022-12-11T01:01:28.360Z,55.25
2022-12-11T01:03:54.843Z,60.55
2022-12-11T01:06:26.991Z,49.65
2022-12-11T01:09:14.472Z,56.87
2022-12-11T01:11:42.931Z,53.63
2022-12-11T01:14:12.997Z,57.83
2022-12-11T01:16:39.506Z,54.22
2022-12-11T01:19:05.999Z,53.75
2022-12-11T01:21:32.459Z,49.27
2022-12-11T01:23:58.943Z,54.70
2022-12-11T01:26:25.672Z,51.90
2022-12-11T01:28:52.256Z,58.67
2022-12-11T01:31:20.024Z,54.35
2022-12-11T01:33:46.723Z,61.27
2022-12-11T01:36:19.416Z,59.60
2022-12-11T01:38:48.205Z,59.20
2022-12-11T01:41:15.806Z,54.00
2022-12-11T01:44:21.161Z,72.07
2022-12-11T01:46:47.598Z,57.10
2022-12-11T01:49:16.613Z,56.53
2022-12-11T01:51:53.344Z,65.45
2022-12-11T01:54:23.476Z,53.83
2022-12-11T01:56:52.967Z,54.42
2022-12-11T01:59:24.597Z,61.60
2022-12-11T02:02:03.177Z,63.70
2022-12-11T02:04:30.908Z,59.42
2022-12-11T02:06:57.474Z,54.60
2022-12-11T02:09:26.997Z,55.67
2022-12-11T02:12:08.620Z,56.57
2022-12-11T02:14:57.233Z,51.15
2022-12-11T02:17:29.200Z,55.88
2022-12-11T02:20:11.529Z,51.38
2022-12-11T02:23:15.286Z,56.22
2022-12-11T02:26:12.883Z,47.60
2022-12-11T02:29:00.161Z,49.15
2022-12-11T02:31:36.423Z,56.75
2022-12-11T02:34:02.844Z,50.72
2022-12-11T02:36:35.043Z,54.45
2022-12-11T02:39:03.665Z,54.57
2022-12-11T02:41:32.410Z,52.30
2022-12-11T02:44:01.376Z,50.55
2022-12-11T02:46:29.547Z,48.42
2022-12-11T02:48:56.585Z,49.47
2022-12-11T02:51:28.570Z,58.73
2022-12-11T02:53:58.879Z,55.50
2022-12-11T02:56:42.039Z,57.33
2022-12-11T02:59:18.979Z,46.03
2022-12-11T03:01:46.597Z,51.65
2022-12-11T03:04:13.499Z,46.63
2022-12-11T03:06:44.826Z,50.25
2022-12-11T03:09:11.282Z,44.45
2022-12-11T03:11:37.745Z,53.25
2022-12-11T03:14:05.311Z,53.88
2022-12-11T03:16:36.618Z,49.43
2022-12-11T03:19:10.488Z,54.35
2022-12-11T03:21:45.533Z,46.33
2022-12-11T03:24:18.593Z,43.30
2022-12-11T03:26:56.331Z,48.45
2022-12-11T03:29:29.822Z,48.70
2022-12-11T03:32:12.182Z,43.38
2022-12-11T03:34:44.526Z,50.60
2022-12-11T03:37:12.817Z,40.53
2022-12-11T03:39:44.258Z,45.78
2022-12-11T03:42:13.881Z,48.33
2022-12-11T03:44:43.278Z,41.10
2022-12-11T03:47:10.558Z,45.70
2022-12-11T03:49:42.062Z,41.00
2022-12-11T03:52:12.202Z,44.75
2022-12-11T03:54:40.813Z,41.37
2022-12-11T03:57:09.452Z,47.78
2022-12-11T03:59:35.855Z,40.08
2022-12-11T04:02:02.331Z,45.22
2022-12-11T04:04:28.857Z,46.95
2022-12-11T04:06:55.308Z,43.87
2022-12-11T04:09:21.700Z,37.50
2022-12-11T04:11:48.096Z,42.85
2022-12-11T04:14:33.125Z,38.72
2022-12-11T04:17:00.987Z,36.72
2022-12-11T04:19:45.998Z,42.10
2022-12-11T04:22:33.310Z,37.92
2022-12-11T04:25:00.842Z,36.50
2022-12-11T04:27:46.459Z,34.58
2022-12-11T04:30:18.433Z,37.08
2022-12-11T04:32:44.920Z,35.90
2022-12-11T04:35:12.457Z,38.83
2022-12-11T04:37:39.800Z,40.20
2022-12-11T04:40:09.089Z,35.72
2022-12-11T04:42:35.547Z,33.95
2022-12-11T04:45:01.956Z,32.73
2022-12-11T04:47:28.380Z,36.25
2022-12-11T04:49:54.780Z,34.22
2022-12-11T04:52:21.191Z,36.13
2022-12-11T04:54:47.834Z,36.78
2022-12-11T04:57:14.333Z,33.00
2022-12-11T04:59:40.722Z,34.25
2022-12-11T05:02:07.176Z,41.20
2022-12-11T05:04:35.024Z,31.85
2022-12-11T05:07:02.005Z,30.67
2022-12-11T05:09:28.534Z,28.80
2022-12-11T05:11:56.185Z,26.63
2022-12-11T05:14:22.589Z,26.85
2022-12-11T05:16:49.006Z,27.15
2022-12-11T05:19:15.658Z,31.30
2022-12-11T05:21:42.137Z,25.07
2022-12-11T05:24:08.862Z,26.70
2022-12-11T05:26:35.296Z,29.83
2022-12-11T05:29:01.879Z,32.20
2022-12-11T05:31:28.439Z,27.80
2022-12-11T05:33:54.914Z,27.90
2022-12-11T05:36:27.426Z,32.33
2022-12-11T05:38:54.632Z,30.20
2022-12-11T05:41:24.447Z,29.40
2022-12-11T05:43:51.920Z,28.77
2022-12-11T05:46:20.838Z,28.57
2022-12-11T05:48:50.852Z,29.33
2022-12-11T05:51:17.896Z,27.10
2022-12-11T05:53:45.780Z,28.42
2022-12-11T05:56:18.918Z,29.63
2022-12-11T05:58:48.019Z,28.47
2022-12-11T06:01:18.126Z,27.30
2022-12-11T06:03:44.737Z,29.05
2022-12-11T06:06:11.277Z,24.25
2022-12-11T06:08:38.015Z,28.65
2022-12-11T06:11:05.020Z,28.73
2022-12-11T06:13:31.802Z,27.77
2022-12-11T06:16:02.860Z,33.53
2022-12-11T06:18:29.489Z,27.95
2022-12-11T06:20:55.944Z,33.08
2022-12-11T06:23:22.439Z,29.13
2022-12-11T06:25:49.097Z,31.13
2022-12-11T06:28:15.527Z,27.42
2022-12-11T06:30:41.996Z,33.28
2022-12-11T06:33:08.460Z,29.75
2022-12-11T06:35:41.435Z,32.73
2022-12-11T06:38:09.216Z,31.55
2022-12-11T06:40:35.718Z,31.92
2022-12-11T06:43:02.285Z,36.08
2022-12-11T06:45:28.737Z,36.05
2022-12-11T06:47:55.659Z,32.97
2022-12-11T06:50:22.075Z,33.50
2022-12-11T06:52:48.501Z,30.42
2022-12-11T06:55:14.931Z,33.10
2022-12-11T06:57:41.369Z,34.00
2022-12-11T07:00:08.329Z,30.90
2022-12-11T07:02:34.787Z,30.13
2022-12-11T07:05:01.312Z,41.88
2022-12-11T07:07:27.732Z,37.78
2022-12-11T07:09:54.166Z,39.75
2022-12-11T07:12:21.116Z,39.43
2022-12-11T07:14:47.792Z,40.92
2022-12-11T07:17:14.399Z,37.60
2022-12-11T07:19:40.984Z,48.08
2022-12-11T07:22:07.538Z,44.17
2022-12-11T07:24:34.140Z,38.50
2022-12-11T07:27:00.556Z,57.15
2022-12-11T07:29:27.005Z,49.75
2022-12-11T07:31:53.550Z,43.03
2022-12-11T07:34:20.034Z,44.72
2022-12-11T07:36:46.461Z,64.70
2022-12-11T07:39:13.046Z,42.28
2022-12-11T07:41:40.174Z,73.18
2022-12-11T07:44:06.547Z,49.72
2022-12-11T07:46:34.325Z,64.00
2022-12-11T07:49:01.516Z,133.60
2022-12-11T07:51:32.829Z,83.13
2022-12-11T07:54:03.216Z,43.13
2022-12-11T07:56:30.903Z,36.90
2022-12-11T07:59:00.123Z,32.10
2022-12-11T08:01:28.976Z,32.80
2022-12-11T08:03:56.145Z,37.92
2022-12-11T08:06:28.636Z,48.63
2022-12-11T08:08:56.469Z,74.07
2022-12-11T08:11:22.879Z,66.95
2022-12-11T08:13:49.762Z,41.07
2022-12-11T08:16:16.898Z,32.95
2022-12-11T08:18:45.312Z,34.53
2022-12-11T08:21:14.936Z,31.92
2022-12-11T08:23:42.016Z,32.00
2022-12-11T08:26:22.088Z,35.20
2022-12-11T08:28:48.491Z,33.30
2022-12-11T08:31:16.559Z,35.45
2022-12-11T08:33:44.314Z,37.78
2022-12-11T08:36:13.804Z,34.92
2022-12-11T08:38:40.672Z,35.07
2022-12-11T08:41:21.033Z,34.13
2022-12-11T08:43:48.379Z,33.05
2022-12-11T08:46:15.387Z,34.17
2022-12-11T08:48:43.293Z,33.95
2022-12-11T08:51:15.175Z,28.87
2022-12-11T08:53:41.913Z,36.17
2022-12-11T08:56:16.745Z,38.10
2022-12-11T08:58:44.696Z,27.83
2022-12-11T09:01:14.680Z,26.23
2022-12-11T09:03:42.471Z,32.13
2022-12-11T09:06:14.683Z,30.17
2022-12-11T09:08:43.945Z,31.33
2022-12-11T09:11:17.017Z,39.78
2022-12-11T09:13:44.090Z,34.60
2022-12-11T09:16:16.695Z,35.03
2022-12-11T09:18:45.734Z,32.78
2022-12-11T09:21:14.050Z,37.40
2022-12-11T09:23:41.162Z,33.90
2022-12-11T09:26:11.112Z,30.15
2022-12-11T09:28:42.856Z,29.90
2022-12-11T09:31:18.782Z,32.95
2022-12-11T09:33:46.762Z,36.00
2022-12-11T09:36:13.677Z,34.80
2022-12-11T09:38:40.185Z,31.50
2022-12-11T09:41:22.432Z,32.80
2022-12-11T09:43:58.202Z,29.90
2022-12-11T09:46:25.781Z,25.63
2022-12-11T09:48:54.162Z,30.30
2022-12-11T09:51:32.215Z,34.80
2022-12-11T09:54:02.867Z,24.63
2022-12-11T09:56:33.397Z,31.80
2022-12-11T09:59:31.951Z,31.48
2022-12-11T10:02:25.681Z,27.02
2022-12-11T10:05:15.603Z,28.98
2022-12-11T10:07:53.648Z,26.90
2022-12-11T10:10:38.330Z,30.25
2022-12-11T10:13:26.317Z,30.33
2022-12-11T10:16:02.015Z,30.15
2022-12-11T10:18:31.003Z,28.15
2022-12-11T10:21:00.759Z,29.63
2022-12-11T10:23:44.116Z,28.33
2022-12-11T10:26:17.517Z,28.00
2022-12-11T10:28:44.228Z,32.17
2022-12-11T10:31:28.674Z,29.33
2022-12-11T10:34:01.313Z,32.57
2022-12-11T10:36:35.114Z,28.13
2022-12-11T10:39:02.568Z,28.88
2022-12-11T10:41:39.801Z,30.00
2022-12-11T10:44:16.566Z,31.73
2022-12-11T10:46:43.959Z,24.23
2022-12-11T10:49:29.887Z,28.67
2022-12-11T10:51:57.472Z,23.70
2022-12-11T10:54:33.693Z,31.13
2022-12-11T10:57:02.362Z,23.95
2022-12-11T10:59:40.064Z,25.13
2022-12-11T11:02:16.030Z,20.33
2022-12-11T11:04:44.838Z,29.55
2022-12-11T11:07:19.348Z,24.70
2022-12-11T11:09:48.421Z,23.92
2022-12-11T11:12:18.828Z,25.17
2022-12-11T11:14:45.506Z,26.77
2022-12-11T11:17:17.422Z,25.20
2022-12-11T11:19:47.980Z,20.55
2022-12-11T11:22:17.713Z,20.77
2022-12-11T11:24:56.889Z,23.03
2022-12-11T11:27:34.184Z,22.73
2022-12-11T11:30:04.477Z,23.70
2022-12-11T11:32:38.690Z,20.50
2022-12-11T11:35:26.757Z,26.95
2022-12-11T11:38:11.782Z,23.17
2022-12-11T11:40:45.658Z,30.67
2022-12-11T11:43:48.269Z,26.83
2022-12-11T11:46:36.563Z,26.67
2022-12-11T11:49:30.751Z,25.92
2022-12-11T11:52:17.918Z,24.27
2022-12-11T11:54:52.443Z,24.70
2022-12-11T11:57:27.997Z,21.27
2022-12-11T11:59:59.312Z,27.20
2022-12-11T12:02:25.761Z,50.30
2022-12-11T12:04:53.166Z,27.00
2022-12-11T12:07:55.194Z,23.95
2022-12-11T12:10:26.728Z,22.38
2022-12-11T12:13:23.963Z,29.42
2022-12-11T12:16:00.114Z,39.60
2022-12-11T12:18:35.701Z,31.27
2022-12-11T12:21:44.715Z,28.38
2022-12-11T12:24:35.605Z,27.88
2022-12-11T12:27:51.613Z,36.95
2022-12-11T12:30:22.823Z,23.33
2022-12-11T12:33:14.936Z,25.23
2022-12-11T12:36:06.904Z,33.10
2022-12-11T12:38:57.817Z,25.00
2022-12-11T12:41:49.342Z,42.05
2022-12-11T12:44:18.516Z,45.75
2022-12-11T12:47:00.623Z,30.60
2022-12-11T12:49:38.482Z,37.88
2022-12-11T12:52:07.222Z,43.40
2022-12-11T12:54:35.599Z,42.85
2022-12-11T12:57:03.420Z,65.38
2022-12-11T12:59:30.168Z,33.73
2022-12-11T13:01:59.544Z,25.08
2022-12-11T13:04:55.656Z,28.38
2022-12-11T13:07:29.503Z,29.67
2022-12-11T13:10:04.448Z,33.15
2022-12-11T13:12:43.776Z,28.17
2022-12-11T13:15:45.753Z,32.08
2022-12-11T13:18:33.322Z,21.85
2022-12-11T13:21:00.067Z,30.10
2022-12-11T13:23:31.042Z,28.45
2022-12-11T13:26:00.544Z,25.87
2022-12-11T13:28:28.740Z,28.20
2022-12-11T13:31:07.553Z,30.17
2022-12-11T13:33:41.525Z,42.53
2022-12-11T13:36:16.757Z,44.78
2022-12-11T13:38:56.533Z,33.07
2022-12-11T13:41:23.700Z,30.30
2022-12-11T13:43:52.024Z,31.67
2022-12-11T13:46:26.815Z,37.78
2022-12-11T13:49:06.797Z,28.25
2022-12-11T13:51:37.978Z,26.60
2022-12-11T13:54:16.345Z,32.80
2022-12-11T13:56:55.165Z,31.50
2022-12-11T13:59:31.048Z,26.55
2022-12-11T14:02:01.247Z,28.83
2022-12-11T14:04:28.787Z,34.77
2022-12-11T14:06:56.451Z,70.35
2022-12-11T14:09:26.328Z,50.17
2022-12-11T14:11:57.060Z,39.85
2022-12-11T14:14:42.091Z,35.85
2022-12-11T14:17:18.169Z,42.90
2022-12-11T14:19:48.540Z,40.92
2022-12-11T14:22:22.770Z,46.45
2022-12-11T14:24:51.289Z,49.20
2022-12-11T14:27:18.989Z,45.38
2022-12-11T14:29:45.647Z,43.67
2022-12-11T14:32:35.082Z,68.30
2022-12-11T14:35:05.498Z,58.30
2022-12-11T14:37:33.836Z,123.30
2022-12-11T14:40:14.668Z,75.75
2022-12-11T14:42:52.490Z,49.63
2022-12-11T14:45:34.333Z,40.97
2022-12-11T14:48:03.916Z,42.30
2022-12-11T14:50:47.507Z,46.15
2022-12-11T14:53:28.316Z,49.65
2022-12-11T14:55:57.921Z,47.70
2022-12-11T14:58:26.728Z,35.22
2022-12-11T15:01:02.805Z,35.78
2022-12-11T15:03:40.875Z,55.15
2022-12-11T15:06:43.921Z,47.20
2022-12-11T15:09:22.056Z,36.43
2022-12-11T15:11:50.892Z,37.42
2022-12-11T15:14:19.972Z,34.17
2022-12-11T15:16:48.326Z,31.27
2022-12-11T15:19:20.713Z,33.80
2022-12-11T15:21:47.721Z,37.43
2022-12-11T15:24:39.228Z,34.83
2022-12-11T15:27:06.891Z,27.67
2022-12-11T15:29:39.253Z,33.92
2022-12-11T15:32:08.506Z,27.80
2022-12-11T15:34:43.497Z,31.60
2022-12-11T15:37:26.629Z,34.00
2022-12-11T15:39:54.587Z,33.55
2022-12-11T15:42:30.140Z,39.05
2022-12-11T15:44:57.152Z,38.75
2022-12-11T15:47:27.187Z,37.67
2022-12-11T15:49:57.963Z,32.72
2022-12-11T15:52:24.393Z,33.40
2022-12-11T15:54:50.947Z,35.10
2022-12-11T15:57:20.163Z,29.25
2022-12-11T15:59:48.804Z,29.30
2022-12-11T16:02:15.788Z,31.05
2022-12-11T16:04:42.285Z,32.88
2022-12-11T16:07:23.697Z,38.72
2022-12-11T16:09:50.408Z,43.15
2022-12-11T16:12:17.051Z,30.33
2022-12-11T16:14:45.070Z,29.70
2022-12-11T16:17:13.314Z,33.72
2022-12-11T16:19:40.899Z,31.63
2022-12-11T16:22:10.919Z,36.13
2022-12-11T16:24:38.115Z,37.37
2022-12-11T16:27:05.415Z,33.55
2022-12-11T16:29:40.067Z,36.80
2022-12-11T16:32:08.400Z,33.47
2022-12-11T16:34:37.520Z,35.00
2022-12-11T16:37:08.073Z,31.90
2022-12-11T16:39:36.828Z,31.98
2022-12-11T16:42:05.626Z,28.55
2022-12-11T16:44:32.399Z,35.85
2022-12-11T16:46:59.048Z,31.52
2022-12-11T16:49:25.604Z,28.47
2022-12-11T16:51:51.973Z,33.47
2022-12-11T16:54:18.735Z,33.60
2022-12-11T16:56:45.588Z,33.72
2022-12-11T16:59:12.874Z,29.25
2022-12-11T17:01:39.598Z,38.47
2022-12-11T17:04:06.161Z,31.90
2022-12-11T17:06:33.438Z,28.80
2022-12-11T17:08:59.823Z,35.25
2022-12-11T17:11:26.310Z,65.32
2022-12-11T17:13:57.687Z,41.87
2022-12-11T17:16:26.135Z,34.78
2022-12-11T17:18:53.028Z,29.20
2022-12-11T17:21:20.794Z,37.50
2022-12-11T17:23:47.180Z,27.92
2022-12-11T17:26:14.529Z,35.20
2022-12-11T17:28:41.000Z,37.40
2022-12-11T17:31:15.071Z,28.45
2022-12-11T17:33:41.857Z,30.85
2022-12-11T17:36:08.785Z,27.42
2022-12-11T17:38:35.744Z,25.67
2022-12-11T17:41:06.317Z,30.77
2022-12-11T17:43:32.715Z,26.80
2022-12-11T17:45:59.201Z,32.33
2022-12-11T17:48:25.940Z,27.90
2022-12-11T17:50:53.016Z,26.20
2022-12-11T17:53:21.635Z,27.23
2022-12-11T17:55:48.750Z,27.40
2022-12-11T17:58:21.868Z,26.40
2022-12-11T18:00:51.139Z,26.25
2022-12-11T18:03:18.680Z,27.80
2022-12-11T18:05:48.907Z,23.13
2022-12-11T18:08:18.354Z,24.13
2022-12-11T18:10:45.393Z,27.52
2022-12-11T18:13:12.681Z,139.55
2022-12-11T18:15:39.767Z,132.43
2022-12-11T18:18:06.870Z,32.88
2022-12-11T18:20:37.579Z,31.60
2022-12-11T18:23:04.956Z,28.23
2022-12-11T18:25:31.555Z,26.63
2022-12-11T18:27:59.518Z,26.07
2022-12-11T18:30:26.098Z,25.98
2022-12-11T18:32:52.557Z,32.45
2022-12-11T18:35:19.443Z,34.05
2022-12-11T18:37:46.167Z,29.70
2022-12-11T18:40:12.650Z,49.87
2022-12-11T18:42:39.161Z,51.30
2022-12-11T18:45:06.963Z,46.22
2022-12-11T18:47:34.022Z,46.58
2022-12-11T18:50:07.107Z,38.15
2022-12-11T18:52:34.320Z,31.77
2022-12-11T18:55:00.968Z,29.02
2022-12-11T18:57:27.391Z,25.63
2022-12-11T18:59:53.974Z,25.75
2022-12-11T19:02:21.552Z,26.80
2022-12-11T19:04:48.022Z,26.87
2022-12-11T19:07:14.464Z,21.25
2022-12-11T19:09:46.252Z,24.20
2022-12-11T19:12:14.502Z,35.28
2022-12-11T19:14:41.494Z,52.67
2022-12-11T19:17:08.097Z,38.40
2022-12-11T19:19:35.812Z,31.42
2022-12-11T19:22:02.297Z,38.08
2022-12-11T19:24:28.690Z,34.30
2022-12-11T19:26:55.172Z,23.05
2022-12-11T19:29:25.419Z,39.27
2022-12-11T19:31:52.064Z,32.70
2022-12-11T19:34:18.712Z,26.35
2022-12-11T19:36:45.214Z,22.65
2022-12-11T19:39:13.402Z,23.45
2022-12-11T19:41:40.784Z,18.00
2022-12-11T19:44:08.268Z,25.90
2022-12-11T19:46:35.413Z,31.58
2022-12-11T19:49:02.974Z,21.48
2022-12-11T19:51:40.711Z,22.20
2022-12-11T19:54:08.944Z,22.57
2022-12-11T19:56:35.672Z,20.80
2022-12-11T19:59:03.837Z,21.35
2022-12-11T20:01:32.627Z,20.30
2022-12-11T20:04:03.772Z,20.10
2022-12-11T20:06:32.418Z,23.63
2022-12-11T20:08:59.767Z,23.15
2022-12-11T20:11:26.402Z,20.98
2022-12-11T20:13:55.427Z,19.70
2022-12-11T20:16:39.499Z,21.75
2022-12-11T20:19:08.644Z,20.20
2022-12-11T20:21:35.088Z,21.23
2022-12-11T20:24:01.500Z,20.00
2022-12-11T20:26:29.513Z,19.20
2022-12-11T20:28:56.087Z,18.50
2022-12-11T20:31:24.958Z,21.03
2022-12-11T20:33:52.807Z,22.02
2022-12-11T20:36:21.912Z,22.40
2022-12-11T20:38:49.517Z,26.00
2022-12-11T20:41:19.465Z,23.02
2022-12-11T20:43:46.975Z,21.10
2022-12-11T20:46:17.562Z,23.17
2022-12-11T20:48:44.902Z,21.67
2022-12-11T20:51:14.275Z,21.38
2022-12-11T20:53:42.409Z,18.05
2022-12-11T20:56:17.840Z,20.83
2022-12-11T20:58:45.275Z,23.70
2022-12-11T21:01:21.260Z,20.88
2022-12-11T21:03:49.031Z,25.25
2022-12-11T21:06:20.176Z,20.33
2022-12-11T21:08:46.636Z,33.87
2022-12-11T21:11:13.440Z,27.33
2022-12-11T21:13:40.157Z,24.25
2022-12-11T21:16:08.009Z,30.88
2022-12-11T21:18:34.713Z,32.00
2022-12-11T21:21:01.162Z,25.73
2022-12-11T21:23:27.632Z,26.42
2022-12-11T21:25:54.336Z,23.58
2022-12-11T21:28:21.244Z,29.88
2022-12-11T21:30:47.707Z,27.88
2022-12-11T21:33:14.290Z,30.20
2022-12-11T21:35:40.680Z,26.38
2022-12-11T21:38:07.095Z,28.42
2022-12-11T21:40:33.584Z,24.50
2022-12-11T21:43:00.014Z,25.48
2022-12-11T21:45:59.183Z,21.40
2022-12-11T21:48:13.775Z,19.20
2022-12-11T21:50:41.364Z,22.00
2022-12-11T21:53:07.895Z,25.27
2022-12-11T21:55:34.471Z,22.88
2022-12-11T21:58:00.881Z,18.77
2022-12-11T22:00:28.221Z,25.15
2022-12-11T22:02:54.740Z,23.10
2022-12-11T22:05:21.283Z,22.85
2022-12-11T22:07:47.765Z,20.45
2022-12-11T22:10:14.237Z,23.77
2022-12-11T22:12:40.622Z,23.67
2022-12-11T22:15:07.960Z,23.38
2022-12-11T22:17:34.459Z,31.85
2022-12-11T22:20:00.941Z,24.27
2022-12-11T22:22:27.500Z,24.20
2022-12-11T22:24:53.925Z,20.00
2022-12-11T22:27:23.700Z,28.23
2022-12-11T22:29:50.469Z,26.58
2022-12-11T22:32:16.947Z,18.95
2022-12-11T22:34:43.355Z,24.47
2022-12-11T22:37:09.744Z,22.70
2022-12-11T22:39:36.145Z,21.73
2022-12-11T22:42:02.645Z,22.33
2022-12-11T22:44:29.037Z,21.23
2022-12-11T22:46:55.487Z,21.67
2022-12-11T22:49:21.873Z,22.20
2022-12-11T22:51:49.082Z,23.40
2022-12-11T22:54:15.742Z,19.15
2022-12-11T22:56:42.154Z,25.10
2022-12-11T22:59:08.550Z,26.47
2022-12-11T23:01:34.993Z,21.42
2022-12-11T23:04:01.451Z,20.35
2022-12-11T23:06:27.940Z,21.20
2022-12-11T23:08:57.687Z,19.05
2022-12-11T23:11:30.199Z,23.50
2022-12-11T23:13:57.128Z,23.13
2022-12-11T23:16:25.674Z,20.05
2022-12-11T23:18:52.492Z,23.58
2022-12-11T23:21:19.045Z,23.20
2022-12-11T23:23:45.571Z,20.00
2022-12-11T23:26:13.939Z,24.83
2022-12-11T23:28:40.880Z,21.02
2022-12-11T23:31:08.599Z,23.30
2022-12-11T23:33:35.232Z,21.13
2022-12-11T23:36:02.155Z,20.93
2022-12-11T23:38:28.667Z,25.77
2022-12-11T23:40:55.399Z,20.35
2022-12-11T23:43:22.183Z,22.02
2022-12-11T23:45:48.654Z,26.83
2022-12-11T23:48:15.331Z,23.90
2022-12-11T23:50:43.034Z,23.85
2022-12-11T23:53:09.655Z,28.08
2022-12-11T23:55:39.459Z,23.05
2022-12-11T23:58:06.214Z,26.60
